sensor_id;sensor_type;location;lat;lon;timestamp;P1;durP1;ratioP1;P2;durP2;ratioP2
23990;SDS011;12205;50.600;4.608;2023-07-24T00:00:45;10.20;;;1.70;;
23990;SDS011;12205;50.600;4.608;2023-07-24T00:03:12;13.73;;;2.63;;
23990;SDS011;12205;50.600;4.608;2023-07-24T00:05:39;11.15;;;2.05;;
23990;SDS011;12205;50.600;4.608;2023-07-24T00:08:06;13.88;;;2.33;;
23990;SDS011;12205;50.600;4.608;2023-07-24T00:10:33;9.25;;;1.77;;
23990;SDS011;12205;50.600;4.608;2023-07-24T00:13:01;8.63;;;1.80;;
23990;SDS011;12205;50.600;4.608;2023-07-24T00:15:28;6.15;;;1.83;;
23990;SDS011;12205;50.600;4.608;2023-07-24T00:17:56;16.40;;;2.35;;
23990;SDS011;12205;50.600;4.608;2023-07-24T00:20:23;12.18;;;2.08;;
23990;SDS011;12205;50.600;4.608;2023-07-24T00:22:51;8.60;;;1.90;;
23990;SDS011;12205;50.600;4.608;2023-07-24T00:25:18;16.63;;;2.20;;
23990;SDS011;12205;50.600;4.608;2023-07-24T00:27:45;9.40;;;1.65;;
23990;SDS011;12205;50.600;4.608;2023-07-24T00:30:12;15.95;;;2.22;;
23990;SDS011;12205;50.600;4.608;2023-07-24T00:32:39;10.10;;;1.80;;
23990;SDS011;12205;50.600;4.608;2023-07-24T00:35:08;13.25;;;2.22;;
23990;SDS011;12205;50.600;4.608;2023-07-24T00:37:35;8.80;;;1.85;;
23990;SDS011;12205;50.600;4.608;2023-07-24T00:40:03;13.38;;;2.00;;
23990;SDS011;12205;50.600;4.608;2023-07-24T00:42:32;13.95;;;2.60;;
23990;SDS011;12205;50.600;4.608;2023-07-24T00:44:59;13.10;;;2.15;;
23990;SDS011;12205;50.600;4.608;2023-07-24T00:47:26;11.57;;;2.10;;
23990;SDS011;12205;50.600;4.608;2023-07-24T00:49:54;8.55;;;1.77;;
23990;SDS011;12205;50.600;4.608;2023-07-24T00:52:23;12.98;;;2.35;;
23990;SDS011;12205;50.600;4.608;2023-07-24T00:54:51;14.05;;;2.17;;
23990;SDS011;12205;50.600;4.608;2023-07-24T00:57:20;10.30;;;1.90;;
23990;SDS011;12205;50.600;4.608;2023-07-24T00:59:47;7.97;;;1.92;;
23990;SDS011;12205;50.600;4.608;2023-07-24T01:02:16;10.45;;;2.17;;
23990;SDS011;12205;50.600;4.608;2023-07-24T01:04:43;14.50;;;2.08;;
23990;SDS011;12205;50.600;4.608;2023-07-24T01:07:12;9.75;;;1.90;;
23990;SDS011;12205;50.600;4.608;2023-07-24T01:09:43;8.38;;;1.83;;
23990;SDS011;12205;50.600;4.608;2023-07-24T01:12:13;12.60;;;2.15;;
23990;SDS011;12205;50.600;4.608;2023-07-24T01:14:49;8.38;;;2.10;;
23990;SDS011;12205;50.600;4.608;2023-07-24T01:17:24;13.60;;;2.17;;
23990;SDS011;12205;50.600;4.608;2023-07-24T01:19:57;12.63;;;2.22;;
23990;SDS011;12205;50.600;4.608;2023-07-24T01:22:31;5.55;;;1.73;;
23990;SDS011;12205;50.600;4.608;2023-07-24T01:25:13;9.10;;;2.28;;
23990;SDS011;12205;50.600;4.608;2023-07-24T01:27:50;10.55;;;2.10;;
23990;SDS011;12205;50.600;4.608;2023-07-24T01:30:18;10.82;;;1.67;;
23990;SDS011;12205;50.600;4.608;2023-07-24T01:32:46;9.30;;;1.90;;
23990;SDS011;12205;50.600;4.608;2023-07-24T01:35:15;8.88;;;1.83;;
23990;SDS011;12205;50.600;4.608;2023-07-24T01:37:43;8.18;;;1.55;;
23990;SDS011;12205;50.600;4.608;2023-07-24T01:40:12;10.93;;;2.17;;
23990;SDS011;12205;50.600;4.608;2023-07-24T01:42:40;8.88;;;1.60;;
23990;SDS011;12205;50.600;4.608;2023-07-24T01:45:10;12.15;;;2.40;;
23990;SDS011;12205;50.600;4.608;2023-07-24T01:47:37;6.03;;;1.58;;
23990;SDS011;12205;50.600;4.608;2023-07-24T01:50:05;7.63;;;1.70;;
23990;SDS011;12205;50.600;4.608;2023-07-24T01:52:34;5.93;;;1.90;;
23990;SDS011;12205;50.600;4.608;2023-07-24T01:55:01;11.00;;;2.00;;
23990;SDS011;12205;50.600;4.608;2023-07-24T01:57:28;7.97;;;1.80;;
23990;SDS011;12205;50.600;4.608;2023-07-24T01:59:55;10.52;;;1.85;;
23990;SDS011;12205;50.600;4.608;2023-07-24T02:02:23;12.30;;;2.17;;
23990;SDS011;12205;50.600;4.608;2023-07-24T02:04:50;13.23;;;2.00;;
23990;SDS011;12205;50.600;4.608;2023-07-24T02:07:18;12.13;;;1.90;;
23990;SDS011;12205;50.600;4.608;2023-07-24T02:09:45;11.02;;;2.17;;
23990;SDS011;12205;50.600;4.608;2023-07-24T02:12:12;10.88;;;2.10;;
23990;SDS011;12205;50.600;4.608;2023-07-24T02:14:39;13.43;;;2.70;;
23990;SDS011;12205;50.600;4.608;2023-07-24T02:17:06;14.70;;;2.50;;
23990;SDS011;12205;50.600;4.608;2023-07-24T02:19:34;14.25;;;2.20;;
23990;SDS011;12205;50.600;4.608;2023-07-24T02:22:02;11.93;;;2.03;;
23990;SDS011;12205;50.600;4.608;2023-07-24T02:27:00;8.93;;;2.40;;
23990;SDS011;12205;50.600;4.608;2023-07-24T02:29:30;16.20;;;2.70;;
23990;SDS011;12205;50.600;4.608;2023-07-24T02:31:58;10.43;;;2.40;;
23990;SDS011;12205;50.600;4.608;2023-07-24T02:34:25;12.20;;;2.38;;
23990;SDS011;12205;50.600;4.608;2023-07-24T02:36:54;7.95;;;2.10;;
23990;SDS011;12205;50.600;4.608;2023-07-24T02:39:22;16.13;;;2.83;;
23990;SDS011;12205;50.600;4.608;2023-07-24T02:41:49;9.43;;;1.98;;
23990;SDS011;12205;50.600;4.608;2023-07-24T02:44:16;10.30;;;2.10;;
23990;SDS011;12205;50.600;4.608;2023-07-24T02:46:43;6.88;;;1.80;;
23990;SDS011;12205;50.600;4.608;2023-07-24T02:49:10;11.38;;;2.08;;
23990;SDS011;12205;50.600;4.608;2023-07-24T02:51:37;5.78;;;1.90;;
23990;SDS011;12205;50.600;4.608;2023-07-24T02:54:06;8.50;;;1.52;;
23990;SDS011;12205;50.600;4.608;2023-07-24T02:56:33;6.22;;;1.48;;
23990;SDS011;12205;50.600;4.608;2023-07-24T02:59:00;6.25;;;1.55;;
23990;SDS011;12205;50.600;4.608;2023-07-24T03:01:27;7.50;;;1.75;;
23990;SDS011;12205;50.600;4.608;2023-07-24T03:03:54;6.30;;;1.63;;
23990;SDS011;12205;50.600;4.608;2023-07-24T03:06:21;4.22;;;1.30;;
23990;SDS011;12205;50.600;4.608;2023-07-24T03:08:49;7.07;;;1.50;;
23990;SDS011;12205;50.600;4.608;2023-07-24T03:11:17;5.95;;;1.15;;
23990;SDS011;12205;50.600;4.608;2023-07-24T03:13:44;3.72;;;1.20;;
23990;SDS011;12205;50.600;4.608;2023-07-24T03:16:11;7.90;;;1.45;;
23990;SDS011;12205;50.600;4.608;2023-07-24T03:18:38;5.13;;;1.23;;
23990;SDS011;12205;50.600;4.608;2023-07-24T03:21:06;9.18;;;1.45;;
23990;SDS011;12205;50.600;4.608;2023-07-24T03:23:33;6.43;;;1.17;;
23990;SDS011;12205;50.600;4.608;2023-07-24T03:26:00;8.50;;;1.10;;
23990;SDS011;12205;50.600;4.608;2023-07-24T03:28:28;7.43;;;1.23;;
23990;SDS011;12205;50.600;4.608;2023-07-24T03:30:56;5.57;;;1.30;;
23990;SDS011;12205;50.600;4.608;2023-07-24T03:33:23;3.63;;;1.00;;
23990;SDS011;12205;50.600;4.608;2023-07-24T03:35:50;4.20;;;1.13;;
23990;SDS011;12205;50.600;4.608;2023-07-24T03:38:17;5.05;;;1.15;;
23990;SDS011;12205;50.600;4.608;2023-07-24T03:40:44;5.65;;;1.20;;
23990;SDS011;12205;50.600;4.608;2023-07-24T03:43:12;3.20;;;0.88;;
23990;SDS011;12205;50.600;4.608;2023-07-24T03:45:41;3.35;;;0.80;;
23990;SDS011;12205;50.600;4.608;2023-07-24T03:48:09;3.08;;;0.93;;
23990;SDS011;12205;50.600;4.608;2023-07-24T03:50:36;2.50;;;0.80;;
23990;SDS011;12205;50.600;4.608;2023-07-24T03:53:03;2.65;;;0.82;;
23990;SDS011;12205;50.600;4.608;2023-07-24T03:55:30;6.63;;;1.00;;
23990;SDS011;12205;50.600;4.608;2023-07-24T03:57:57;5.35;;;0.85;;
23990;SDS011;12205;50.600;4.608;2023-07-24T04:00:24;6.90;;;1.10;;
23990;SDS011;12205;50.600;4.608;2023-07-24T04:02:52;8.27;;;1.10;;
23990;SDS011;12205;50.600;4.608;2023-07-24T04:05:19;2.47;;;0.80;;
23990;SDS011;12205;50.600;4.608;2023-07-24T04:07:46;2.70;;;0.90;;
23990;SDS011;12205;50.600;4.608;2023-07-24T04:10:14;3.05;;;0.77;;
23990;SDS011;12205;50.600;4.608;2023-07-24T04:12:41;7.10;;;0.93;;
23990;SDS011;12205;50.600;4.608;2023-07-24T04:15:08;6.13;;;1.00;;
23990;SDS011;12205;50.600;4.608;2023-07-24T04:17:36;3.45;;;0.80;;
23990;SDS011;12205;50.600;4.608;2023-07-24T04:20:06;3.42;;;1.00;;
23990;SDS011;12205;50.600;4.608;2023-07-24T04:22:34;4.07;;;0.80;;
23990;SDS011;12205;50.600;4.608;2023-07-24T04:25:01;7.47;;;1.08;;
23990;SDS011;12205;50.600;4.608;2023-07-24T04:27:29;2.78;;;0.70;;
23990;SDS011;12205;50.600;4.608;2023-07-24T04:29:56;3.75;;;0.80;;
23990;SDS011;12205;50.600;4.608;2023-07-24T04:32:23;2.95;;;0.88;;
23990;SDS011;12205;50.600;4.608;2023-07-24T04:34:53;4.47;;;1.00;;
23990;SDS011;12205;50.600;4.608;2023-07-24T04:37:21;3.58;;;0.80;;
23990;SDS011;12205;50.600;4.608;2023-07-24T04:39:48;2.88;;;0.80;;
23990;SDS011;12205;50.600;4.608;2023-07-24T04:42:15;5.25;;;0.95;;
23990;SDS011;12205;50.600;4.608;2023-07-24T04:44:42;5.85;;;0.93;;
23990;SDS011;12205;50.600;4.608;2023-07-24T04:47:09;5.18;;;1.02;;
23990;SDS011;12205;50.600;4.608;2023-07-24T04:49:37;2.72;;;0.90;;
23990;SDS011;12205;50.600;4.608;2023-07-24T04:52:04;4.15;;;0.93;;
23990;SDS011;12205;50.600;4.608;2023-07-24T04:54:33;3.22;;;0.80;;
23990;SDS011;12205;50.600;4.608;2023-07-24T04:57:00;5.20;;;1.02;;
23990;SDS011;12205;50.600;4.608;2023-07-24T04:59:28;5.00;;;0.90;;
23990;SDS011;12205;50.600;4.608;2023-07-24T05:01:55;6.13;;;1.00;;
23990;SDS011;12205;50.600;4.608;2023-07-24T05:04:22;6.68;;;0.90;;
23990;SDS011;12205;50.600;4.608;2023-07-24T05:06:49;6.43;;;1.00;;
23990;SDS011;12205;50.600;4.608;2023-07-24T05:09:16;3.88;;;0.82;;
23990;SDS011;12205;50.600;4.608;2023-07-24T05:11:44;4.28;;;1.00;;
23990;SDS011;12205;50.600;4.608;2023-07-24T05:14:11;4.55;;;0.82;;
23990;SDS011;12205;50.600;4.608;2023-07-24T05:16:38;5.35;;;1.30;;
23990;SDS011;12205;50.600;4.608;2023-07-24T05:19:05;6.10;;;1.10;;
23990;SDS011;12205;50.600;4.608;2023-07-24T05:21:32;3.38;;;1.30;;
23990;SDS011;12205;50.600;4.608;2023-07-24T05:23:59;6.13;;;1.23;;
23990;SDS011;12205;50.600;4.608;2023-07-24T05:26:27;7.43;;;0.98;;
23990;SDS011;12205;50.600;4.608;2023-07-24T05:28:55;2.70;;;1.10;;
23990;SDS011;12205;50.600;4.608;2023-07-24T05:31:22;6.03;;;1.40;;
23990;SDS011;12205;50.600;4.608;2023-07-24T05:33:49;6.30;;;1.17;;
23990;SDS011;12205;50.600;4.608;2023-07-24T05:36:16;8.57;;;1.35;;
23990;SDS011;12205;50.600;4.608;2023-07-24T05:38:43;10.30;;;1.30;;
23990;SDS011;12205;50.600;4.608;2023-07-24T05:41:10;4.47;;;1.20;;
23990;SDS011;12205;50.600;4.608;2023-07-24T05:43:37;5.45;;;1.48;;
23990;SDS011;12205;50.600;4.608;2023-07-24T05:46:06;6.68;;;1.17;;
23990;SDS011;12205;50.600;4.608;2023-07-24T05:48:33;5.93;;;0.95;;
23990;SDS011;12205;50.600;4.608;2023-07-24T05:51:00;6.40;;;1.13;;
23990;SDS011;12205;50.600;4.608;2023-07-24T05:53:27;6.00;;;1.42;;
23990;SDS011;12205;50.600;4.608;2023-07-24T05:55:57;4.88;;;1.17;;
23990;SDS011;12205;50.600;4.608;2023-07-24T05:58:26;5.68;;;1.23;;
23990;SDS011;12205;50.600;4.608;2023-07-24T06:00:53;6.85;;;1.30;;
23990;SDS011;12205;50.600;4.608;2023-07-24T06:03:22;5.40;;;1.20;;
23990;SDS011;12205;50.600;4.608;2023-07-24T06:05:50;4.78;;;1.20;;
23990;SDS011;12205;50.600;4.608;2023-07-24T06:08:18;5.85;;;1.58;;
23990;SDS011;12205;50.600;4.608;2023-07-24T06:10:46;5.03;;;1.20;;
23990;SDS011;12205;50.600;4.608;2023-07-24T06:13:14;4.03;;;1.25;;
23990;SDS011;12205;50.600;4.608;2023-07-24T06:15:41;4.10;;;1.30;;
23990;SDS011;12205;50.600;4.608;2023-07-24T06:18:09;8.00;;;1.45;;
23990;SDS011;12205;50.600;4.608;2023-07-24T06:20:37;6.80;;;1.20;;
23990;SDS011;12205;50.600;4.608;2023-07-24T06:23:04;5.97;;;1.13;;
23990;SDS011;12205;50.600;4.608;2023-07-24T06:25:32;5.25;;;1.13;;
23990;SDS011;12205;50.600;4.608;2023-07-24T06:27:59;3.40;;;0.98;;
23990;SDS011;12205;50.600;4.608;2023-07-24T06:30:26;7.35;;;1.20;;
23990;SDS011;12205;50.600;4.608;2023-07-24T06:32:53;3.70;;;1.00;;
23990;SDS011;12205;50.600;4.608;2023-07-24T06:35:20;3.80;;;0.95;;
23990;SDS011;12205;50.600;4.608;2023-07-24T06:37:48;5.50;;;1.02;;
23990;SDS011;12205;50.600;4.608;2023-07-24T06:40:16;4.97;;;1.10;;
23990;SDS011;12205;50.600;4.608;2023-07-24T06:42:43;4.75;;;1.08;;
23990;SDS011;12205;50.600;4.608;2023-07-24T06:45:11;4.68;;;0.90;;
23990;SDS011;12205;50.600;4.608;2023-07-24T06:47:38;4.75;;;0.98;;
23990;SDS011;12205;50.600;4.608;2023-07-24T06:50:06;4.15;;;0.70;;
23990;SDS011;12205;50.600;4.608;2023-07-24T06:52:34;4.60;;;0.88;;
23990;SDS011;12205;50.600;4.608;2023-07-24T06:55:02;4.35;;;1.00;;
23990;SDS011;12205;50.600;4.608;2023-07-24T06:57:30;5.35;;;1.15;;
23990;SDS011;12205;50.600;4.608;2023-07-24T06:59:57;9.00;;;0.90;;
23990;SDS011;12205;50.600;4.608;2023-07-24T07:02:26;2.03;;;0.77;;
23990;SDS011;12205;50.600;4.608;2023-07-24T07:04:53;3.92;;;1.00;;
23990;SDS011;12205;50.600;4.608;2023-07-24T07:07:20;4.38;;;1.20;;
23990;SDS011;12205;50.600;4.608;2023-07-24T07:09:47;4.57;;;0.77;;
23990;SDS011;12205;50.600;4.608;2023-07-24T07:12:16;4.18;;;0.93;;
23990;SDS011;12205;50.600;4.608;2023-07-24T07:14:43;3.15;;;0.88;;
23990;SDS011;12205;50.600;4.608;2023-07-24T07:17:10;4.78;;;1.00;;
23990;SDS011;12205;50.600;4.608;2023-07-24T07:19:37;4.55;;;1.02;;
23990;SDS011;12205;50.600;4.608;2023-07-24T07:22:05;7.43;;;1.35;;
23990;SDS011;12205;50.600;4.608;2023-07-24T07:24:32;5.95;;;0.98;;
23990;SDS011;12205;50.600;4.608;2023-07-24T07:26:59;5.18;;;1.00;;
23990;SDS011;12205;50.600;4.608;2023-07-24T07:29:28;3.47;;;0.82;;
23990;SDS011;12205;50.600;4.608;2023-07-24T07:31:56;4.13;;;1.10;;
23990;SDS011;12205;50.600;4.608;2023-07-24T07:34:23;4.97;;;1.05;;
23990;SDS011;12205;50.600;4.608;2023-07-24T07:36:50;6.60;;;1.00;;
23990;SDS011;12205;50.600;4.608;2023-07-24T07:39:17;3.35;;;0.80;;
23990;SDS011;12205;50.600;4.608;2023-07-24T07:41:45;4.72;;;1.10;;
23990;SDS011;12205;50.600;4.608;2023-07-24T07:44:12;5.30;;;0.90;;
23990;SDS011;12205;50.600;4.608;2023-07-24T07:46:40;3.50;;;0.80;;
23990;SDS011;12205;50.600;4.608;2023-07-24T07:49:06;6.18;;;0.73;;
23990;SDS011;12205;50.600;4.608;2023-07-24T07:51:33;4.13;;;0.90;;
23990;SDS011;12205;50.600;4.608;2023-07-24T07:54:00;3.53;;;0.90;;
23990;SDS011;12205;50.600;4.608;2023-07-24T07:56:27;2.17;;;0.70;;
23990;SDS011;12205;50.600;4.608;2023-07-24T07:58:55;4.45;;;0.75;;
23990;SDS011;12205;50.600;4.608;2023-07-24T08:01:22;6.75;;;0.90;;
23990;SDS011;12205;50.600;4.608;2023-07-24T08:03:50;5.72;;;0.82;;
23990;SDS011;12205;50.600;4.608;2023-07-24T08:06:17;5.25;;;1.00;;
23990;SDS011;12205;50.600;4.608;2023-07-24T08:08:46;4.47;;;1.10;;
23990;SDS011;12205;50.600;4.608;2023-07-24T08:11:13;7.95;;;0.98;;
23990;SDS011;12205;50.600;4.608;2023-07-24T08:13:40;2.58;;;0.77;;
23990;SDS011;12205;50.600;4.608;2023-07-24T08:16:12;4.45;;;0.98;;
23990;SDS011;12205;50.600;4.608;2023-07-24T08:18:43;3.88;;;0.63;;
23990;SDS011;12205;50.600;4.608;2023-07-24T08:21:12;3.42;;;1.08;;
23990;SDS011;12205;50.600;4.608;2023-07-24T08:23:40;4.65;;;0.82;;
23990;SDS011;12205;50.600;4.608;2023-07-24T08:26:07;4.25;;;0.90;;
23990;SDS011;12205;50.600;4.608;2023-07-24T08:28:34;5.03;;;0.80;;
23990;SDS011;12205;50.600;4.608;2023-07-24T08:31:01;3.45;;;0.93;;
23990;SDS011;12205;50.600;4.608;2023-07-24T08:33:29;5.80;;;0.80;;
23990;SDS011;12205;50.600;4.608;2023-07-24T08:35:59;6.95;;;0.80;;
23990;SDS011;12205;50.600;4.608;2023-07-24T08:38:29;4.03;;;0.90;;
23990;SDS011;12205;50.600;4.608;2023-07-24T08:41:00;3.33;;;0.82;;
23990;SDS011;12205;50.600;4.608;2023-07-24T08:43:32;2.78;;;0.90;;
23990;SDS011;12205;50.600;4.608;2023-07-24T08:46:01;4.78;;;0.75;;
23990;SDS011;12205;50.600;4.608;2023-07-24T08:48:30;4.20;;;0.90;;
23990;SDS011;12205;50.600;4.608;2023-07-24T08:51:01;5.65;;;1.00;;
23990;SDS011;12205;50.600;4.608;2023-07-24T08:53:31;2.40;;;0.90;;
23990;SDS011;12205;50.600;4.608;2023-07-24T08:56:01;5.35;;;0.90;;
23990;SDS011;12205;50.600;4.608;2023-07-24T08:58:29;3.78;;;1.13;;
23990;SDS011;12205;50.600;4.608;2023-07-24T09:00:56;4.88;;;1.10;;
23990;SDS011;12205;50.600;4.608;2023-07-24T09:03:24;3.17;;;1.00;;
23990;SDS011;12205;50.600;4.608;2023-07-24T09:05:52;4.75;;;1.40;;
23990;SDS011;12205;50.600;4.608;2023-07-24T09:08:28;4.13;;;1.20;;
23990;SDS011;12205;50.600;4.608;2023-07-24T09:10:57;6.35;;;1.20;;
23990;SDS011;12205;50.600;4.608;2023-07-24T09:13:24;7.28;;;1.60;;
23990;SDS011;12205;50.600;4.608;2023-07-24T09:15:52;6.03;;;1.30;;
23990;SDS011;12205;50.600;4.608;2023-07-24T09:18:19;5.65;;;1.30;;
23990;SDS011;12205;50.600;4.608;2023-07-24T09:20:47;6.72;;;1.33;;
23990;SDS011;12205;50.600;4.608;2023-07-24T09:23:15;3.25;;;1.27;;
23990;SDS011;12205;50.600;4.608;2023-07-24T09:25:43;5.05;;;1.20;;
23990;SDS011;12205;50.600;4.608;2023-07-24T09:28:11;3.05;;;1.20;;
23990;SDS011;12205;50.600;4.608;2023-07-24T09:30:40;8.18;;;1.58;;
23990;SDS011;12205;50.600;4.608;2023-07-24T09:33:17;0.47;;;0.10;;
23990;SDS011;12205;50.600;4.608;2023-07-24T09:35:44;0.65;;;0.10;;
23990;SDS011;12205;50.600;4.608;2023-07-24T09:38:11;0.20;;;0.00;;
23990;SDS011;12205;50.600;4.608;2023-07-24T09:40:39;1.75;;;0.05;;
23990;SDS011;12205;50.600;4.608;2023-07-24T09:43:16;0.88;;;0.00;;
23990;SDS011;12205;50.600;4.608;2023-07-24T09:45:44;0.77;;;0.03;;
23990;SDS011;12205;50.600;4.608;2023-07-24T09:48:13;1.55;;;0.08;;
23990;SDS011;12205;50.600;4.608;2023-07-24T09:50:43;2.45;;;0.17;;
23990;SDS011;12205;50.600;4.608;2023-07-24T09:53:13;3.33;;;0.15;;
23990;SDS011;12205;50.600;4.608;2023-07-24T09:55:47;2.75;;;0.20;;
23990;SDS011;12205;50.600;4.608;2023-07-24T09:58:23;2.05;;;0.30;;
23990;SDS011;12205;50.600;4.608;2023-07-24T10:00:52;12.20;;;0.50;;
23990;SDS011;12205;50.600;4.608;2023-07-24T10:03:20;6.45;;;0.60;;
23990;SDS011;12205;50.600;4.608;2023-07-24T10:05:48;2.33;;;0.40;;
23990;SDS011;12205;50.600;4.608;2023-07-24T10:08:17;2.00;;;0.38;;
23990;SDS011;12205;50.600;4.608;2023-07-24T10:10:45;3.47;;;0.65;;
23990;SDS011;12205;50.600;4.608;2023-07-24T10:13:16;2.00;;;0.60;;
23990;SDS011;12205;50.600;4.608;2023-07-24T10:15:46;3.65;;;0.60;;
23990;SDS011;12205;50.600;4.608;2023-07-24T10:18:15;5.73;;;0.70;;
23990;SDS011;12205;50.600;4.608;2023-07-24T10:20:43;1.38;;;0.60;;
23990;SDS011;12205;50.600;4.608;2023-07-24T10:23:11;2.63;;;0.60;;
23990;SDS011;12205;50.600;4.608;2023-07-24T10:25:44;2.33;;;0.60;;
23990;SDS011;12205;50.600;4.608;2023-07-24T10:28:17;2.17;;;0.70;;
23990;SDS011;12205;50.600;4.608;2023-07-24T10:30:54;2.08;;;0.63;;
23990;SDS011;12205;50.600;4.608;2023-07-24T10:33:22;2.47;;;0.70;;
23990;SDS011;12205;50.600;4.608;2023-07-24T10:35:51;1.90;;;0.70;;
23990;SDS011;12205;50.600;4.608;2023-07-24T10:38:31;2.28;;;0.73;;
23990;SDS011;12205;50.600;4.608;2023-07-24T10:41:01;3.75;;;0.82;;
23990;SDS011;12205;50.600;4.608;2023-07-24T10:43:39;2.38;;;0.63;;
23990;SDS011;12205;50.600;4.608;2023-07-24T10:46:10;3.03;;;0.80;;
23990;SDS011;12205;50.600;4.608;2023-07-24T10:48:38;4.18;;;0.73;;
23990;SDS011;12205;50.600;4.608;2023-07-24T10:51:09;4.28;;;0.90;;
23990;SDS011;12205;50.600;4.608;2023-07-24T10:53:41;1.88;;;0.75;;
23990;SDS011;12205;50.600;4.608;2023-07-24T10:56:11;4.50;;;0.90;;
23990;SDS011;12205;50.600;4.608;2023-07-24T10:58:39;3.83;;;0.80;;
23990;SDS011;12205;50.600;4.608;2023-07-24T11:01:06;2.70;;;0.90;;
23990;SDS011;12205;50.600;4.608;2023-07-24T11:03:36;2.75;;;0.70;;
23990;SDS011;12205;50.600;4.608;2023-07-24T11:06:10;3.38;;;0.68;;
23990;SDS011;12205;50.600;4.608;2023-07-24T11:08:40;3.30;;;0.60;;
23990;SDS011;12205;50.600;4.608;2023-07-24T11:11:07;3.08;;;0.70;;
23990;SDS011;12205;50.600;4.608;2023-07-24T11:13:35;3.75;;;0.63;;
23990;SDS011;12205;50.600;4.608;2023-07-24T11:16:05;6.90;;;0.93;;
23990;SDS011;12205;50.600;4.608;2023-07-24T11:18:44;1.65;;;0.60;;
23990;SDS011;12205;50.600;4.608;2023-07-24T11:21:13;2.42;;;0.60;;
23990;SDS011;12205;50.600;4.608;2023-07-24T11:23:48;1.83;;;0.60;;
23990;SDS011;12205;50.600;4.608;2023-07-24T11:26:18;3.00;;;0.80;;
23990;SDS011;12205;50.600;4.608;2023-07-24T11:28:46;3.33;;;0.80;;
23990;SDS011;12205;50.600;4.608;2023-07-24T11:31:15;3.38;;;0.90;;
23990;SDS011;12205;50.600;4.608;2023-07-24T11:33:46;3.35;;;0.80;;
23990;SDS011;12205;50.600;4.608;2023-07-24T11:36:15;4.93;;;0.63;;
23990;SDS011;12205;50.600;4.608;2023-07-24T11:38:44;2.20;;;0.70;;
23990;SDS011;12205;50.600;4.608;2023-07-24T11:41:11;2.08;;;0.70;;
23990;SDS011;12205;50.600;4.608;2023-07-24T11:43:45;1.58;;;0.50;;
23990;SDS011;12205;50.600;4.608;2023-07-24T11:46:21;1.90;;;0.70;;
23990;SDS011;12205;50.600;4.608;2023-07-24T11:48:52;2.83;;;0.68;;
23990;SDS011;12205;50.600;4.608;2023-07-24T11:51:21;2.28;;;0.50;;
23990;SDS011;12205;50.600;4.608;2023-07-24T11:53:50;2.67;;;0.70;;
23990;SDS011;12205;50.600;4.608;2023-07-24T11:56:19;1.77;;;0.60;;
23990;SDS011;12205;50.600;4.608;2023-07-24T11:58:47;2.50;;;0.55;;
23990;SDS011;12205;50.600;4.608;2023-07-24T12:01:14;3.97;;;0.77;;
23990;SDS011;12205;50.600;4.608;2023-07-24T12:03:41;1.95;;;0.55;;
23990;SDS011;12205;50.600;4.608;2023-07-24T12:06:15;2.70;;;0.60;;
23990;SDS011;12205;50.600;4.608;2023-07-24T12:08:43;2.00;;;0.57;;
23990;SDS011;12205;50.600;4.608;2023-07-24T12:11:15;2.35;;;0.75;;
23990;SDS011;12205;50.600;4.608;2023-07-24T12:13:43;4.75;;;0.60;;
23990;SDS011;12205;50.600;4.608;2023-07-24T12:16:10;3.22;;;0.65;;
23990;SDS011;12205;50.600;4.608;2023-07-24T12:18:38;2.72;;;0.63;;
23990;SDS011;12205;50.600;4.608;2023-07-24T12:21:05;1.60;;;0.52;;
23990;SDS011;12205;50.600;4.608;2023-07-24T12:23:33;2.97;;;0.70;;
23990;SDS011;12205;50.600;4.608;2023-07-24T12:26:00;3.45;;;0.90;;
23990;SDS011;12205;50.600;4.608;2023-07-24T12:28:28;2.30;;;0.80;;
23990;SDS011;12205;50.600;4.608;2023-07-24T12:30:55;2.65;;;0.60;;
23990;SDS011;12205;50.600;4.608;2023-07-24T12:33:22;1.75;;;0.60;;
23990;SDS011;12205;50.600;4.608;2023-07-24T12:35:49;2.38;;;0.70;;
23990;SDS011;12205;50.600;4.608;2023-07-24T12:38:17;4.28;;;0.98;;
23990;SDS011;12205;50.600;4.608;2023-07-24T12:40:45;3.60;;;0.63;;
23990;SDS011;12205;50.600;4.608;2023-07-24T12:43:14;3.17;;;0.80;;
23990;SDS011;12205;50.600;4.608;2023-07-24T12:45:42;5.72;;;0.70;;
23990;SDS011;12205;50.600;4.608;2023-07-24T12:48:09;5.93;;;1.08;;
23990;SDS011;12205;50.600;4.608;2023-07-24T12:50:36;4.47;;;1.00;;
23990;SDS011;12205;50.600;4.608;2023-07-24T12:53:03;3.33;;;1.00;;
23990;SDS011;12205;50.600;4.608;2023-07-24T12:55:30;3.80;;;0.93;;
23990;SDS011;12205;50.600;4.608;2023-07-24T12:57:59;2.85;;;0.90;;
23990;SDS011;12205;50.600;4.608;2023-07-24T13:00:27;3.60;;;0.98;;
23990;SDS011;12205;50.600;4.608;2023-07-24T13:02:55;2.83;;;0.80;;
23990;SDS011;12205;50.600;4.608;2023-07-24T13:05:22;5.40;;;0.90;;
23990;SDS011;12205;50.600;4.608;2023-07-24T13:07:49;4.18;;;0.90;;
23990;SDS011;12205;50.600;4.608;2023-07-24T13:10:16;6.15;;;1.17;;
23990;SDS011;12205;50.600;4.608;2023-07-24T13:12:43;5.00;;;0.98;;
23990;SDS011;12205;50.600;4.608;2023-07-24T13:15:12;7.00;;;1.00;;
23990;SDS011;12205;50.600;4.608;2023-07-24T13:17:39;4.03;;;1.10;;
23990;SDS011;12205;50.600;4.608;2023-07-24T13:20:07;5.30;;;0.90;;
23990;SDS011;12205;50.600;4.608;2023-07-24T13:22:35;3.88;;;1.08;;
23990;SDS011;12205;50.600;4.608;2023-07-24T13:25:02;6.88;;;1.00;;
23990;SDS011;12205;50.600;4.608;2023-07-24T13:27:30;5.18;;;1.10;;
23990;SDS011;12205;50.600;4.608;2023-07-24T13:29:57;4.70;;;1.30;;
23990;SDS011;12205;50.600;4.608;2023-07-24T13:32:26;4.78;;;1.35;;
23990;SDS011;12205;50.600;4.608;2023-07-24T13:34:55;5.70;;;1.60;;
23990;SDS011;12205;50.600;4.608;2023-07-24T13:37:24;4.45;;;1.80;;
23990;SDS011;12205;50.600;4.608;2023-07-24T13:39:51;7.18;;;1.73;;
23990;SDS011;12205;50.600;4.608;2023-07-24T13:42:18;9.27;;;2.00;;
23990;SDS011;12205;50.600;4.608;2023-07-24T13:44:45;5.47;;;1.70;;
23990;SDS011;12205;50.600;4.608;2023-07-24T13:47:12;7.05;;;1.80;;
23990;SDS011;12205;50.600;4.608;2023-07-24T13:49:40;5.03;;;1.60;;
23990;SDS011;12205;50.600;4.608;2023-07-24T13:52:07;4.30;;;1.60;;
23990;SDS011;12205;50.600;4.608;2023-07-24T13:54:35;4.03;;;1.50;;
23990;SDS011;12205;50.600;4.608;2023-07-24T13:57:02;8.05;;;1.33;;
23990;SDS011;12205;50.600;4.608;2023-07-24T13:59:30;2.25;;;1.00;;
23990;SDS011;12205;50.600;4.608;2023-07-24T14:01:58;6.30;;;1.30;;
23990;SDS011;12205;50.600;4.608;2023-07-24T14:04:25;2.50;;;1.00;;
23990;SDS011;12205;50.600;4.608;2023-07-24T14:06:53;4.28;;;1.00;;
23990;SDS011;12205;50.600;4.608;2023-07-24T14:09:20;2.05;;;0.80;;
23990;SDS011;12205;50.600;4.608;2023-07-24T14:11:47;4.05;;;0.60;;
23990;SDS011;12205;50.600;4.608;2023-07-24T14:14:15;3.15;;;0.47;;
23990;SDS011;12205;50.600;4.608;2023-07-24T14:16:44;4.03;;;0.60;;
23990;SDS011;12205;50.600;4.608;2023-07-24T14:19:11;1.33;;;0.50;;
23990;SDS011;12205;50.600;4.608;2023-07-24T14:21:38;3.65;;;0.50;;
23990;SDS011;12205;50.600;4.608;2023-07-24T14:24:06;2.03;;;0.38;;
23990;SDS011;12205;50.600;4.608;2023-07-24T14:26:33;1.50;;;0.40;;
23990;SDS011;12205;50.600;4.608;2023-07-24T14:29:02;1.75;;;0.50;;
23990;SDS011;12205;50.600;4.608;2023-07-24T14:31:29;1.58;;;0.40;;
23990;SDS011;12205;50.600;4.608;2023-07-24T14:33:56;1.67;;;0.43;;
23990;SDS011;12205;50.600;4.608;2023-07-24T14:36:24;1.80;;;0.32;;
23990;SDS011;12205;50.600;4.608;2023-07-24T14:38:53;1.15;;;0.40;;
23990;SDS011;12205;50.600;4.608;2023-07-24T14:41:21;2.42;;;0.50;;
23990;SDS011;12205;50.600;4.608;2023-07-24T14:43:48;5.05;;;0.52;;
23990;SDS011;12205;50.600;4.608;2023-07-24T14:46:15;2.33;;;0.60;;
23990;SDS011;12205;50.600;4.608;2023-07-24T14:48:42;1.65;;;0.55;;
23990;SDS011;12205;50.600;4.608;2023-07-24T14:51:09;2.88;;;0.40;;
23990;SDS011;12205;50.600;4.608;2023-07-24T14:53:37;1.73;;;0.50;;